Time;durP1;ratioP1;P1;durP2;ratioP2;P2;SDS_P1;SDS_P2;PMS_P1;PMS_P2;Temp;Humidity;BMP_temperature;BMP_pressure;BME280_temperature;BME280_humidity;BME280_pressure;Samples;Min_cycle;Max_cycle;Signal;HPM_P1;HPM_P2
2023/01/02 04:02:04;;;;;;;3.00;1.27;;;15.10;63.10;;;;;;5458698;23;20531;-74
2023/01/02 04:04:38;;;;;;;1.83;1.20;;;15.10;62.90;;;;;;4996681;28;20480;-73
2023/01/02 04:07:11;;;;;;;3.30;1.33;;;15.10;62.80;;;;;;4996635;28;20488;-74
2023/01/02 04:09:39;;;;;;;2.03;1.20;;;15.00;63.30;;;;;;4996497;28;20971;-74
2023/01/02 04:12:10;;;;;;;1.80;1.00;;;15.00;62.80;;;;;;4996428;28;20527;-73
2023/01/02 04:14:42;;;;;;;2.53;1.20;;;15.00;63.30;;;;;;4996473;28;20445;-74
2023/01/02 04:17:12;;;;;;;2.70;1.20;;;15.00;63.40;;;;;;4997246;28;20826;-74
2023/01/02 04:19:43;;;;;;;2.73;1.33;;;14.90;63.50;;;;;;4996390;28;20438;-74
2023/01/02 04:22:15;;;;;;;2.73;1.80;;;14.90;63.50;;;;;;4996260;28;20540;-74
2023/01/02 04:24:47;;;;;;;2.60;1.43;;;15.00;63.50;;;;;;4996038;28;20464;-74
2023/01/02 04:27:18;;;;;;;2.30;1.27;;;15.00;63.40;;;;;;4996271;28;20484;-74
2023/01/02 04:29:45;;;;;;;2.03;1.00;;;15.00;63.30;;;;;;4995915;28;20792;-74
2023/01/02 04:32:19;;;;;;;2.73;1.40;;;15.00;63.50;;;;;;4996056;28;20511;-74
2023/01/02 04:34:47;;;;;;;1.90;1.07;;;14.90;63.50;;;;;;4996084;28;20433;-74
2023/01/02 04:37:26;;;;;;;2.40;1.37;;;14.90;63.60;;;;;;4996057;28;20453;-74
2023/01/02 04:39:55;;;;;;;2.37;1.30;;;15.00;63.10;;;;;;4995538;28;20441;-74
2023/01/02 04:42:22;;;;;;;2.07;1.30;;;14.90;63.20;;;;;;4995736;28;20501;-74
2023/01/02 04:44:49;;;;;;;4.00;1.40;;;15.00;63.10;;;;;;4995942;28;20445;-74
2023/01/02 04:47:17;;;;;;;2.50;1.30;;;14.90;63.20;;;;;;4996057;28;20453;-73
2023/01/02 04:49:43;;;;;;;2.40;1.33;;;14.80;63.50;;;;;;4995804;28;20446;-74
2023/01/02 04:52:10;;;;;;;2.00;1.13;;;14.70;63.50;;;;;;4995686;28;20520;-74
2023/01/02 04:54:37;;;;;;;2.13;1.33;;;14.60;63.50;;;;;;4995732;28;20449;-74
2023/01/02 04:57:04;;;;;;;2.40;1.20;;;14.70;63.50;;;;;;4995409;28;20988;-74
2023/01/02 04:59:30;;;;;;;2.30;1.27;;;14.60;63.50;;;;;;4995611;28;20453;-74
2023/01/02 05:01:57;;;;;;;2.20;1.00;;;14.60;64.20;;;;;;4995257;28;20544;-74
2023/01/02 05:04:25;;;;;;;4.17;1.20;;;14.60;63.60;;;;;;4995518;28;20495;-74
2023/01/02 05:06:52;;;;;;;2.50;1.40;;;14.70;63.50;;;;;;4995484;28;20499;-74
2023/01/02 05:09:19;;;;;;;2.03;1.30;;;14.70;63.50;;;;;;4995406;28;20820;-74
2023/01/02 05:11:46;;;;;;;2.33;1.13;;;14.70;63.70;;;;;;4995308;28;20885;-74
2023/01/02 05:14:13;;;;;;;2.90;1.30;;;14.70;63.40;;;;;;4995369;28;20449;-74
2023/01/02 05:16:40;;;;;;;2.57;1.37;;;14.70;63.30;;;;;;4995292;28;20457;-74
2023/01/02 05:19:06;;;;;;;2.73;1.80;;;14.70;63.50;;;;;;4995215;28;20516;-74
2023/01/02 05:24:19;;;;;;;4.40;1.43;;;14.60;63.50;;;;;;4995321;28;20413;-74
2023/01/02 05:26:45;;;;;;;4.43;1.30;;;14.60;62.90;;;;;;4995599;28;20476;-74
2023/01/02 05:29:12;;;;;;;3.43;1.13;;;14.70;63.10;;;;;;4995012;28;20565;-73
2023/01/02 05:31:39;;;;;;;2.10;1.13;;;14.60;63.60;;;;;;4994895;28;20469;-74
2023/01/02 05:34:05;;;;;;;3.80;1.60;;;14.50;63.50;;;;;;4994921;28;20449;-74
2023/01/02 05:36:33;;;;;;;2.70;1.70;;;14.40;63.70;;;;;;4994607;28;20946;-73
2023/01/02 05:39:00;;;;;;;2.20;1.27;;;14.50;63.70;;;;;;4994494;28;20950;-74
2023/01/02 05:41:27;;;;;;;2.90;1.60;;;14.40;63.70;;;;;;4994373;28;21057;-74
2023/01/02 05:43:54;;;;;;;4.07;1.93;;;14.40;63.90;;;;;;4994765;28;20515;-74
2023/01/02 05:46:21;;;;;;;2.60;1.80;;;14.40;63.60;;;;;;4994384;28;20865;-74
2023/01/02 05:48:48;;;;;;;2.67;1.90;;;14.40;63.60;;;;;;4994709;28;20858;-73
2023/01/02 05:51:17;;;;;;;3.20;1.47;;;14.30;64.10;;;;;;4994424;28;20485;-74
2023/01/02 05:53:45;;;;;;;2.80;1.60;;;14.30;64.20;;;;;;4993894;28;20484;-74
2023/01/02 05:56:13;;;;;;;2.77;1.90;;;14.30;64.10;;;;;;4994686;28;20500;-73
2023/01/02 05:58:41;;;;;;;3.37;1.77;;;14.30;64.00;;;;;;4994659;28;20453;-73
2023/01/02 06:01:10;;;;;;;2.47;1.50;;;14.30;64.20;;;;;;4994271;28;20481;-74
2023/01/02 06:03:37;;;;;;;3.97;1.50;;;14.30;63.80;;;;;;4994428;28;20474;-74
2023/01/02 06:06:05;;;;;;;2.67;1.37;;;14.20;64.40;;;;;;4994476;28;20500;-74
2023/01/02 06:08:32;;;;;;;2.60;1.67;;;14.20;64.40;;;;;;4994512;28;20857;-74
2023/01/02 06:11:01;;;;;;;3.10;1.50;;;14.20;64.50;;;;;;4994347;28;20524;-74
2023/01/02 06:13:28;;;;;;;2.20;1.20;;;14.20;64.70;;;;;;4994372;28;20499;-73
2023/01/02 06:15:55;;;;;;;2.20;1.63;;;14.10;64.20;;;;;;4994288;28;20449;-72
2023/01/02 06:18:22;;;;;;;2.77;1.17;;;14.10;64.20;;;;;;4994269;28;20457;-73
2023/01/02 06:20:49;;;;;;;3.10;1.77;;;14.10;64.10;;;;;;4994199;28;20527;-74
2023/01/02 06:23:17;;;;;;;2.97;1.47;;;14.00;64.10;;;;;;4993825;28;20481;-73
2023/01/02 06:25:43;;;;;;;3.63;1.70;;;14.00;64.40;;;;;;4994147;28;20484;-74
2023/01/02 06:28:11;;;;;;;2.00;1.33;;;14.10;64.40;;;;;;4993822;28;20820;-73
2023/01/02 06:30:38;;;;;;;3.23;1.70;;;14.20;64.00;;;;;;4993685;28;20465;-73
2023/01/02 06:33:05;;;;;;;2.97;1.70;;;14.10;63.40;;;;;;4994001;28;20819;-73
2023/01/02 06:35:31;;;;;;;3.83;1.70;;;14.10;63.40;;;;;;4993998;28;20454;-73
2023/01/02 06:37:58;;;;;;;2.60;1.50;;;14.00;63.50;;;;;;4993925;28;20449;-73
2023/01/02 06:40:25;;;;;;;2.63;1.23;;;14.00;63.70;;;;;;4993808;28;20452;-73
2023/01/02 06:42:52;;;;;;;3.03;1.57;;;14.10;63.90;;;;;;4993543;28;20901;-73
2023/01/02 06:45:20;;;;;;;2.20;1.30;;;14.10;63.40;;;;;;4993849;28;20445;-73
2023/01/02 06:47:47;;;;;;;3.63;1.50;;;14.20;63.70;;;;;;4994155;28;20656;-74
2023/01/02 06:50:13;;;;;;;2.53;1.50;;;14.10;63.60;;;;;;4993842;28;20504;-73
2023/01/02 06:52:40;;;;;;;2.13;1.40;;;14.10;63.30;;;;;;4993734;28;20461;-74
2023/01/02 06:55:07;;;;;;;4.13;1.60;;;14.10;63.00;;;;;;4993502;28;20496;-74
2023/01/02 06:57:34;;;;;;;2.80;1.60;;;14.20;62.80;;;;;;4993826;28;20453;-72
2023/01/02 07:00:00;;;;;;;3.03;1.57;;;14.30;62.70;;;;;;4993764;28;20445;-72
2023/01/02 07:02:28;;;;;;;3.73;1.90;;;14.40;63.80;;;;;;4993439;28;20490;-72
2023/01/02 07:04:55;;;;;;;4.80;1.60;;;14.40;63.10;;;;;;4996870;28;20495;-72
2023/01/02 07:07:22;;;;;;;2.00;1.37;;;14.40;63.20;;;;;;4997668;28;20453;-73
2023/01/02 07:09:48;;;;;;;2.30;1.20;;;14.50;63.30;;;;;;4997624;28;20457;-74
2023/01/02 07:12:15;;;;;;;2.47;1.40;;;14.40;62.40;;;;;;4997260;28;20977;-73
2023/01/02 07:14:42;;;;;;;3.13;1.73;;;14.40;62.80;;;;;;4997267;28;20448;-74
2023/01/02 07:17:08;;;;;;;3.37;1.63;;;14.40;62.40;;;;;;4997464;28;20448;-74
2023/01/02 07:19:36;;;;;;;2.40;1.40;;;14.30;62.50;;;;;;4997471;28;20449;-73
2023/01/02 07:22:03;;;;;;;3.73;1.57;;;14.20;63.00;;;;;;4997275;28;20485;-74
2023/01/02 07:24:29;;;;;;;3.03;1.63;;;14.30;63.20;;;;;;4997320;28;20507;-73
2023/01/02 07:26:56;;;;;;;2.97;1.80;;;14.30;62.50;;;;;;4997360;28;20893;-73
2023/01/02 07:29:23;;;;;;;4.00;1.70;;;14.30;62.30;;;;;;4997255;28;20869;-74
2023/01/02 07:31:49;;;;;;;2.60;1.50;;;14.40;62.10;;;;;;4997118;28;20473;-74
2023/01/02 07:34:16;;;;;;;3.07;1.57;;;14.40;62.30;;;;;;4996879;28;20569;-74
2023/01/02 07:36:44;;;;;;;3.07;1.70;;;14.50;62.20;;;;;;4997181;28;20454;-74
2023/01/02 07:39:11;;;;;;;3.73;1.90;;;14.50;62.30;;;;;;4997123;28;20449;-73
2023/01/02 07:41:37;;;;;;;2.40;1.50;;;14.50;62.80;;;;;;4996945;28;20658;-73
2023/01/02 07:44:04;;;;;;;2.97;1.63;;;14.60;62.80;;;;;;4996975;28;20536;-73
2023/01/02 07:46:31;;;;;;;2.53;1.60;;;14.70;62.40;;;;;;4996955;28;20784;-73
2023/01/02 07:48:58;;;;;;;3.50;1.70;;;14.70;62.30;;;;;;4996692;28;20449;-73
2023/01/02 07:51:25;;;;;;;3.23;1.57;;;14.80;62.30;;;;;;4996888;28;20523;-74
2023/01/02 07:53:53;;;;;;;2.83;1.70;;;14.90;61.60;;;;;;4996823;28;20449;-73
2023/01/02 07:56:19;;;;;;;3.53;1.60;;;14.80;61.20;;;;;;4996740;28;20504;-73
2023/01/02 07:58:46;;;;;;;3.17;1.70;;;14.90;61.20;;;;;;4996683;28;20519;-73
2023/01/02 08:01:13;;;;;;;2.70;1.80;;;14.90;61.60;;;;;;4996376;28;20483;-73
2023/01/02 08:03:40;;;;;;;3.93;1.60;;;14.70;61.50;;;;;;4997111;28;20520;-74
2023/01/02 08:06:09;;;;;;;2.90;1.23;;;14.70;61.80;;;;;;4996251;28;21002;-73
2023/01/02 08:08:37;;;;;;;2.73;1.47;;;14.50;61.80;;;;;;4996528;28;20473;-73
2023/01/02 08:11:06;;;;;;;2.47;1.63;;;14.40;62.40;;;;;;4996434;28;20470;-74
2023/01/02 08:13:33;;;;;;;2.17;1.30;;;14.40;63.00;;;;;;4996522;28;20442;-73
2023/01/02 08:16:04;;;;;;;3.37;1.50;;;14.40;63.00;;;;;;4995270;28;20511;-74
2023/01/02 08:18:30;;;;;;;2.23;1.30;;;14.40;62.60;;;;;;4996380;28;20529;-74
2023/01/02 08:20:57;;;;;;;2.47;2.00;;;14.50;62.60;;;;;;4996250;28;20465;-74
2023/01/02 08:23:24;;;;;;;2.10;1.50;;;14.50;62.50;;;;;;4996218;28;20536;-75
2023/01/02 08:25:50;;;;;;;2.63;1.60;;;14.60;62.10;;;;;;4996289;28;20453;-74
2023/01/02 08:28:18;;;;;;;3.27;1.80;;;14.50;62.50;;;;;;4998786;28;20499;-73
2023/01/02 08:30:45;;;;;;;2.73;1.47;;;14.40;62.70;;;;;;4998738;28;20457;-73
2023/01/02 08:33:12;;;;;;;2.97;1.77;;;14.40;63.20;;;;;;4998351;28;20450;-73
2023/01/02 08:35:38;;;;;;;4.57;1.90;;;14.40;62.80;;;;;;4998243;28;20457;-73
2023/01/02 08:38:05;;;;;;;3.03;1.33;;;14.50;62.80;;;;;;4998938;28;20569;-76
2023/01/02 08:40:32;;;;;;;2.20;1.20;;;14.50;62.60;;;;;;5003346;28;20453;-74
2023/01/02 08:42:59;;;;;;;2.67;1.57;;;14.60;62.60;;;;;;4999581;28;20481;-75
2023/01/02 08:45:27;;;;;;;2.63;1.53;;;14.80;62.70;;;;;;4999743;28;20458;-75
2023/01/02 08:47:54;;;;;;;2.50;1.30;;;14.90;62.00;;;;;;5000223;28;20449;-74
2023/01/02 08:50:21;;;;;;;2.47;1.40;;;14.90;61.20;;;;;;4999848;28;20970;-76
2023/01/02 08:52:48;;;;;;;2.73;1.70;;;15.00;61.80;;;;;;4999839;28;20849;-76
2023/01/02 08:55:14;;;;;;;4.40;1.60;;;15.20;61.60;;;;;;4999054;28;20453;-74
2023/01/02 08:57:41;;;;;;;2.60;1.60;;;15.30;60.90;;;;;;4998233;28;20464;-75
2023/01/02 09:00:09;;;;;;;2.90;1.80;;;15.50;60.70;;;;;;4998069;28;20437;-75
2023/01/02 09:02:38;;;;;;;4.30;1.90;;;15.70;60.10;;;;;;4998400;28;20492;-75
2023/01/02 09:05:05;;;;;;;2.80;1.53;;;15.80;59.90;;;;;;4998219;28;20898;-76
2023/01/02 09:07:32;;;;;;;3.70;1.60;;;15.90;59.60;;;;;;4995148;28;20942;-75
2023/01/02 09:09:59;;;;;;;2.63;1.30;;;16.00;59.20;;;;;;4995396;28;20449;-75
2023/01/02 09:12:25;;;;;;;3.73;1.63;;;16.10;58.60;;;;;;4995309;28;20524;-75
2023/01/02 09:14:52;;;;;;;2.70;1.70;;;16.10;58.40;;;;;;4995006;28;20458;-75
2023/01/02 09:17:19;;;;;;;3.03;1.23;;;15.90;58.30;;;;;;4995214;28;20504;-75
2023/01/02 09:19:47;;;;;;;3.70;1.80;;;16.00;58.50;;;;;;4994859;28;20869;-75
2023/01/02 09:22:14;;;;;;;3.83;1.40;;;16.10;58.40;;;;;;4994856;28;20516;-75
2023/01/02 09:24:41;;;;;;;2.77;1.20;;;16.00;57.20;;;;;;4995064;28;20485;-75
2023/01/02 09:27:08;;;;;;;3.30;1.87;;;16.00;57.80;;;;;;4994876;28;20512;-75
2023/01/02 09:29:34;;;;;;;2.80;1.57;;;16.00;57.90;;;;;;4995039;28;20445;-75
2023/01/02 09:32:01;;;;;;;2.97;1.73;;;15.90;57.40;;;;;;4994924;28;20500;-75
2023/01/02 09:34:28;;;;;;;2.90;1.60;;;15.80;58.00;;;;;;4995069;28;20449;-75
2023/01/02 09:36:56;;;;;;;3.33;1.77;;;16.00;58.10;;;;;;4995291;28;20449;-75
2023/01/02 09:39:22;;;;;;;2.67;1.70;;;16.20;57.40;;;;;;4995323;28;20450;-75
2023/01/02 09:41:52;;;;;;;4.27;1.60;;;16.20;57.30;;;;;;4994751;28;20532;-75
2023/01/02 09:44:24;;;;;;;2.67;1.70;;;16.40;57.30;;;;;;4994692;28;20538;-75
2023/01/02 09:46:55;;;;;;;2.87;1.90;;;16.50;56.90;;;;;;4994697;28;20434;-75
2023/01/02 09:49:24;;;;;;;2.23;1.50;;;16.50;55.90;;;;;;4994796;28;20433;-75
2023/01/02 09:51:51;;;;;;;2.47;1.30;;;16.60;55.60;;;;;;4994567;28;20473;-75
2023/01/02 09:54:26;;;;;;;2.70;1.60;;;16.60;55.90;;;;;;4994611;28;20453;-75
2023/01/02 09:57:05;;;;;;;2.60;1.70;;;16.70;54.90;;;;;;4994298;28;20781;-75
2023/01/02 09:59:37;;;;;;;3.87;1.40;;;16.40;55.40;;;;;;4994268;28;20835;-75
2023/01/02 10:02:19;;;;;;;3.43;1.80;;;16.40;55.90;;;;;;4994119;28;20543;-75
2023/01/02 10:05:00;;;;;;;3.80;1.67;;;16.40;55.90;;;;;;4994824;28;20560;-73
2023/01/02 10:07:35;;;;;;;3.23;1.57;;;16.20;56.20;;;;;;4994630;28;20911;-73
2023/01/02 10:10:08;;;;;;;3.90;1.70;;;16.20;55.70;;;;;;4994395;28;20841;-73
2023/01/02 10:12:42;;;;;;;2.17;1.20;;;15.90;56.20;;;;;;4994019;28;20878;-74
2023/01/02 10:18:08;;;;;;;2.30;1.43;;;16.00;56.40;;;;;;4992984;28;20457;-75
2023/01/02 10:20:39;;;;;;;2.20;1.30;;;16.00;57.50;;;;;;4994218;28;20425;-76
2023/01/02 10:23:10;;;;;;;3.37;1.50;;;16.30;56.70;;;;;;4994445;28;20566;-77
2023/01/02 10:25:43;;;;;;;3.63;1.83;;;16.50;55.60;;;;;;4995616;28;20437;-76
2023/01/02 10:28:19;;;;;;;2.20;1.50;;;16.50;54.50;;;;;;5014327;28;20436;-76
2023/01/02 10:30:52;;;;;;;3.40;1.90;;;16.60;54.70;;;;;;5014092;28;20498;-76
2023/01/02 10:33:26;;;;;;;4.67;2.00;;;16.50;54.20;;;;;;5014048;28;20827;-77
2023/01/02 10:35:56;;;;;;;2.60;1.53;;;16.30;54.60;;;;;;5014174;28;20473;-77
2023/01/02 10:38:23;;;;;;;2.43;1.70;;;16.30;55.70;;;;;;5013460;28;20502;-76
2023/01/02 10:40:51;;;;;;;2.53;1.50;;;16.60;56.10;;;;;;5014135;28;20507;-76
2023/01/02 10:43:19;;;;;;;2.77;1.40;;;16.80;55.60;;;;;;5014116;28;20483;-76
2023/01/02 10:45:45;;;;;;;2.80;1.50;;;16.90;53.70;;;;;;5014001;28;20452;-76
2023/01/02 10:48:13;;;;;;;3.23;1.90;;;16.90;54.20;;;;;;5014616;28;20449;-77
2023/01/02 10:50:43;;;;;;;2.53;1.50;;;17.00;54.90;;;;;;5014046;28;20938;-77
2023/01/02 10:53:21;;;;;;;2.50;1.33;;;16.90;53.50;;;;;;5014257;28;20828;-76
2023/01/02 10:55:48;;;;;;;2.67;1.47;;;17.00;54.50;;;;;;5013723;28;20468;-76
2023/01/02 10:58:21;;;;;;;2.90;1.67;;;17.30;54.50;;;;;;5014363;28;20448;-76
2023/01/02 11:00:49;;;;;;;3.33;1.73;;;17.80;53.30;;;;;;5014168;28;20433;-77
2023/01/02 11:03:21;;;;;;;3.47;1.70;;;18.20;51.60;;;;;;5013752;28;20483;-76
2023/01/02 11:05:49;;;;;;;3.00;1.73;;;18.50;50.70;;;;;;5014056;28;20527;-76
2023/01/02 11:08:20;;;;;;;2.30;1.40;;;19.10;50.00;;;;;;5013509;28;20800;-76
2023/01/02 11:10:47;;;;;;;3.00;1.50;;;19.10;50.70;;;;;;5014376;28;20448;-76
2023/01/02 11:13:17;;;;;;;3.60;1.30;;;18.90;49.10;;;;;;5013561;28;20448;-76
2023/01/02 11:15:49;;;;;;;3.10;1.40;;;18.80;51.50;;;;;;5012941;28;20459;-76
2023/01/02 11:18:26;;;;;;;6.93;2.63;;;18.50;52.30;;;;;;5013229;28;20437;-76
2023/01/02 11:20:54;;;;;;;3.00;1.53;;;18.50;51.40;;;;;;5013163;28;20428;-76
2023/01/02 11:23:24;;;;;;;3.90;1.90;;;18.40;51.70;;;;;;5013070;28;20552;-77
2023/01/02 11:25:53;;;;;;;4.80;1.90;;;18.40;52.10;;;;;;5013346;28;20555;-76
2023/01/02 11:28:26;;;;;;;2.90;1.90;;;18.20;50.10;;;;;;5013076;28;20463;-76
2023/01/02 11:30:55;;;;;;;2.73;1.40;;;17.90;51.50;;;;;;5013092;28;20433;-76
2023/01/02 11:33:28;;;;;;;3.77;1.60;;;17.80;52.40;;;;;;5013111;28;20510;-74
2023/01/02 11:35:57;;;;;;;5.10;1.73;;;17.70;52.80;;;;;;5012623;28;20541;-77
2023/01/02 11:38:26;;;;;;;2.67;1.70;;;17.40;52.10;;;;;;5012967;28;20802;-77
2023/01/02 11:40:57;;;;;;;3.10;1.70;;;17.50;53.90;;;;;;5012915;28;20531;-73
2023/01/02 11:43:50;;;;;;;2.30;1.57;;;17.40;57.20;;;;;;5013091;28;20471;-73
2023/01/02 11:46:26;;;;;;;3.60;2.00;;;17.60;55.00;;;;;;5012922;28;20512;-73
2023/01/02 11:48:56;;;;;;;4.17;1.97;;;17.70;53.10;;;;;;5012873;28;20444;-77
2023/01/02 11:51:23;;;;;;;4.53;2.17;;;17.80;53.20;;;;;;5016306;28;20457;-76
2023/01/02 11:53:53;;;;;;;2.60;1.80;;;17.70;53.10;;;;;;5017271;28;20444;-77
2023/01/02 11:56:24;;;;;;;3.47;1.63;;;17.50;53.60;;;;;;5016656;28;20468;-76
2023/01/02 11:58:58;;;;;;;3.23;1.63;;;17.30;53.90;;;;;;5016533;28;20491;-74
2023/01/02 12:01:32;;;;;;;2.70;1.67;;;17.40;53.50;;;;;;5016287;28;20467;-76
2023/01/02 12:03:59;;;;;;;3.90;1.90;;;17.30;54.00;;;;;;5016199;28;20530;-76
2023/01/02 12:06:40;;;;;;;3.27;1.80;;;17.30;54.10;;;;;;5016030;28;20554;-75
2023/01/02 12:09:25;;;;;;;6.57;2.20;;;17.30;52.80;;;;;;5016354;28;20483;-76
2023/01/02 12:12:13;;;;;;;5.13;1.70;;;17.40;54.00;;;;;;5016491;28;20428;-76
2023/01/02 12:14:57;;;;;;;5.80;1.83;;;17.50;52.90;;;;;;5016987;28;20807;-73
2023/01/02 12:17:33;;;;;;;2.57;1.70;;;17.60;53.20;;;;;;5016157;28;20484;-76
2023/01/02 12:20:13;;;;;;;2.93;1.80;;;18.00;52.30;;;;;;5017180;28;20417;-76
2023/01/02 12:23:03;;;;;;;3.13;1.60;;;18.50;52.30;;;;;;5017322;28;20440;-76
2023/01/02 12:25:47;;;;;;;3.43;1.50;;;18.90;50.00;;;;;;5016497;28;20465;-76
2023/01/02 12:28:30;;;;;;;3.73;1.70;;;19.30;49.10;;;;;;5017626;28;20456;-76
2023/01/02 12:31:19;;;;;;;7.30;1.67;;;19.50;49.60;;;;;;5016407;28;20429;-76
2023/01/02 12:33:54;;;;;;;5.13;1.90;;;20.60;48.80;;;;;;5016706;28;20437;-77
2023/01/02 12:36:47;;;;;;;2.60;1.77;;;21.40;46.40;;;;;;5016819;28;20487;-76
2023/01/02 12:39:40;;;;;;;5.57;1.97;;;21.90;45.40;;;;;;5017248;28;20437;-76
2023/01/02 12:42:19;;;;;;;5.13;1.53;;;22.90;44.00;;;;;;4999264;28;20980;-76
2023/01/02 12:44:50;;;;;;;2.30;1.50;;;23.30;43.10;;;;;;5016349;28;20878;-76
2023/01/02 12:47:38;;;;;;;3.90;2.37;;;22.80;42.90;;;;;;5016080;28;20838;-76
2023/01/02 12:50:21;;;;;;;3.63;2.27;;;22.70;43.60;;;;;;5015509;28;20948;-76
2023/01/02 12:52:59;;;;;;;4.43;1.80;;;22.80;43.20;;;;;;5016473;28;20440;-77
2023/01/02 12:55:36;;;;;;;2.73;1.60;;;22.80;42.80;;;;;;5016715;28;20942;-78
2023/01/02 12:58:12;;;;;;;2.93;1.70;;;23.60;42.70;;;;;;5016500;28;20940;-77
2023/01/02 13:00:54;;;;;;;4.87;2.20;;;24.50;40.80;;;;;;5016091;28;20440;-77
2023/01/02 13:03:43;;;;;;;4.23;1.80;;;24.80;40.90;;;;;;5016716;28;20536;-78
2023/01/02 13:06:14;;;;;;;2.77;2.03;;;24.50;40.70;;;;;;5015277;28;20468;-77
2023/01/02 13:08:50;;;;;;;11.07;2.47;;;24.20;41.40;;;;;;5015651;28;20854;-78
2023/01/02 13:11:25;;;;;;;5.40;1.97;;;23.90;41.80;;;;;;5015274;28;20432;-77
2023/01/02 13:13:52;;;;;;;5.60;2.30;;;24.10;40.90;;;;;;5015816;28;20502;-77
2023/01/02 13:16:19;;;;;;;3.37;1.87;;;24.10;40.90;;;;;;5015713;28;20495;-77
2023/01/02 13:18:57;;;;;;;5.17;2.43;;;24.50;40.00;;;;;;5017098;28;20452;-77
2023/01/02 13:21:28;;;;;;;5.30;1.90;;;24.60;39.90;;;;;;5016937;28;20448;-76
2023/01/02 13:23:57;;;;;;;6.77;1.93;;;24.40;40.50;;;;;;5015581;28;20472;-77
2023/01/02 13:26:27;;;;;;;9.20;2.43;;;24.00;40.50;;;;;;5016006;28;20465;-78
2023/01/02 13:28:55;;;;;;;3.70;1.83;;;23.70;41.30;;;;;;5016121;28;20452;-77
2023/01/02 13:31:22;;;;;;;3.53;2.00;;;23.20;41.90;;;;;;5014932;28;20468;-76
2023/01/02 13:33:52;;;;;;;3.87;1.70;;;22.90;43.00;;;;;;5015080;28;20440;-77
2023/01/02 13:36:22;;;;;;;4.63;2.00;;;22.00;43.60;;;;;;5014939;28;20891;-77
2023/01/02 13:38:52;;;;;;;7.97;2.13;;;21.40;44.40;;;;;;5015577;28;20918;-76
2023/01/02 13:41:20;;;;;;;6.17;1.80;;;20.90;45.80;;;;;;5015022;28;20453;-77
2023/01/02 13:43:51;;;;;;;6.17;2.30;;;20.30;46.90;;;;;;5015341;28;20524;-77
2023/01/02 13:46:26;;;;;;;3.70;2.07;;;20.00;48.20;;;;;;5014851;28;20469;-77
2023/01/02 13:48:57;;;;;;;4.47;2.07;;;19.70;48.20;;;;;;5015757;28;20452;-77
2023/01/02 13:51:27;;;;;;;4.17;2.13;;;19.30;49.10;;;;;;5016331;28;20484;-76
2023/01/02 13:53:54;;;;;;;7.60;1.90;;;18.80;49.70;;;;;;5015587;28;20452;-77
2023/01/02 13:56:22;;;;;;;4.40;1.93;;;18.70;50.40;;;;;;5014553;28;20503;-76
2023/01/02 13:59:01;;;;;;;4.50;2.10;;;18.70;50.50;;;;;;5014850;28;20452;-78
2023/01/02 14:02:06;;;;;;;4.20;1.93;;;18.60;50.60;;;;;;5014903;28;20440;-77
2023/01/02 14:04:43;;;;;;;3.60;2.20;;;18.30;51.00;;;;;;5016216;28;20472;-76
2023/01/02 14:07:45;;;;;;;3.97;2.10;;;18.00;51.40;;;;;;5014004;28;20475;-76
2023/01/02 14:10:34;;;;;;;4.87;2.10;;;17.80;51.60;;;;;;5014621;28;20443;-76
2023/01/02 14:13:20;;;;;;;4.67;2.10;;;17.80;51.60;;;;;;5013987;28;20479;-76
2023/01/02 14:16:21;;;;;;;3.93;2.23;;;17.60;52.20;;;;;;5014284;28;20445;-76
2023/01/02 14:19:17;;;;;;;3.87;2.37;;;17.60;52.50;;;;;;5013887;28;20439;-76
2023/01/02 14:21:48;;;;;;;4.80;2.13;;;17.40;52.80;;;;;;5010641;28;20452;-76
2023/01/02 14:24:26;;;;;;;3.83;1.93;;;17.30;53.00;;;;;;5014291;28;20484;-74
2023/01/02 14:26:55;;;;;;;4.63;2.37;;;17.40;55.60;;;;;;5014352;28;20892;-76
2023/01/02 14:29:23;;;;;;;7.67;3.07;;;17.40;53.70;;;;;;5014728;28;20460;-76
2023/01/02 14:32:00;;;;;;;4.63;2.00;;;17.30;53.00;;;;;;5013930;28;20448;-76
2023/01/02 14:34:27;;;;;;;3.63;2.13;;;17.30;53.10;;;;;;5013895;28;20448;-75
2023/01/02 14:36:57;;;;;;;4.53;2.50;;;17.20;53.10;;;;;;5013953;28;20456;-76
2023/01/02 14:39:26;;;;;;;4.10;2.83;;;17.30;53.80;;;;;;5013675;28;20455;-76
2023/01/02 14:45:15;;;;;;;5.17;1.90;;;17.10;53.90;;;;;;5013740;28;20464;-75
2023/01/02 14:47:46;;;;;;;5.87;2.00;;;17.20;53.50;;;;;;5014011;28;20472;-76
2023/01/02 14:50:18;;;;;;;4.40;2.63;;;17.20;53.70;;;;;;5013824;28;20424;-77
2023/01/02 14:52:52;;;;;;;5.80;2.50;;;17.20;53.50;;;;;;5013742;28;20433;-78
2023/01/02 14:55:22;;;;;;;4.43;2.30;;;17.00;53.90;;;;;;5014088;28;20421;-76
2023/01/02 14:57:52;;;;;;;4.50;2.20;;;16.90;55.10;;;;;;5013378;28;20518;-76
2023/01/02 15:00:25;;;;;;;4.30;1.97;;;16.70;55.40;;;;;;5013179;28;20456;-76
2023/01/02 15:02:57;;;;;;;4.53;2.30;;;16.50;55.60;;;;;;5013256;28;20475;-76
2023/01/02 15:05:34;;;;;;;4.87;1.97;;;16.50;56.00;;;;;;5013226;28;20559;-76
2023/01/02 15:08:07;;;;;;;4.03;2.07;;;16.40;56.30;;;;;;5013244;28;20511;-76
2023/01/02 15:10:52;;;;;;;5.40;2.10;;;16.50;56.40;;;;;;5013140;28;20437;-76
2023/01/02 15:13:20;;;;;;;3.23;2.20;;;16.20;57.00;;;;;;5013216;28;20432;-77
2023/01/02 15:15:50;;;;;;;5.03;2.23;;;16.10;57.90;;;;;;5012955;28;20449;-76
2023/01/02 15:18:21;;;;;;;4.50;2.17;;;16.00;58.50;;;;;;5013180;28;20445;-74
2023/01/02 15:20:49;;;;;;;5.83;2.83;;;16.00;58.90;;;;;;5012849;28;20981;-77
2023/01/02 15:23:21;;;;;;;3.87;2.50;;;16.00;59.40;;;;;;5012862;28;20531;-76
2023/01/02 15:25:48;;;;;;;4.77;2.00;;;15.90;59.40;;;;;;5015827;28;20515;-75
2023/01/02 15:28:25;;;;;;;6.13;2.60;;;15.90;60.00;;;;;;5016859;28;20444;-77
2023/01/02 15:30:59;;;;;;;4.00;2.60;;;15.70;60.70;;;;;;5017226;28;20455;-75
2023/01/02 15:33:27;;;;;;;5.40;3.73;;;15.60;61.50;;;;;;5016733;28;20502;-75
2023/01/02 15:35:55;;;;;;;3.40;1.93;;;15.50;62.20;;;;;;5016643;28;20469;-75
2023/01/02 15:38:23;;;;;;;4.97;1.90;;;15.40;62.70;;;;;;5016713;28;20456;-77
2023/01/02 15:40:50;;;;;;;4.67;2.07;;;15.40;63.00;;;;;;5016373;28;20941;-75
2023/01/02 15:46:02;;;;;;;3.97;2.47;;;15.20;63.80;;;;;;5016337;28;20490;-76
2023/01/02 15:48:30;;;;;;;3.50;2.10;;;15.00;64.50;;;;;;5016531;28;20510;-76
2023/01/02 15:50:58;;;;;;;3.50;1.77;;;14.90;65.10;;;;;;5016408;28;20452;-76
2023/01/02 15:53:28;;;;;;;5.60;2.50;;;14.80;65.60;;;;;;5016145;28;21016;-75
2023/01/02 15:55:56;;;;;;;8.37;2.63;;;14.80;65.80;;;;;;5016308;28;20459;-74
2023/01/02 15:58:27;;;;;;;8.77;2.80;;;14.70;65.90;;;;;;5016461;28;20451;-76
2023/01/02 16:01:14;;;;;;;4.10;2.20;;;14.60;66.20;;;;;;5016321;28;20447;-75
2023/01/02 16:03:43;;;;;;;3.60;2.00;;;14.50;66.80;;;;;;5016235;28;20432;-76
2023/01/02 16:06:16;;;;;;;5.60;2.40;;;14.40;67.20;;;;;;5016159;28;20501;-76
2023/01/02 16:08:50;;;;;;;2.93;2.20;;;14.30;67.80;;;;;;5017036;28;20841;-75
2023/01/02 16:11:18;;;;;;;3.80;2.23;;;14.20;68.00;;;;;;5015941;28;20907;-75
2023/01/02 16:16:52;;;;;;;3.03;2.50;;;14.10;69.30;;;;;;5111721;23;20496;-75
2023/01/02 16:19:23;;;;;;;3.90;1.97;;;14.10;69.60;;;;;;4996338;28;20441;-76
2023/01/02 16:21:53;;;;;;;6.10;2.07;;;14.00;70.40;;;;;;4996321;28;20430;-75
2023/01/02 16:24:24;;;;;;;2.50;1.83;;;14.00;70.90;;;;;;4996207;28;20453;-75
2023/01/02 16:26:51;;;;;;;4.50;2.00;;;14.00;71.20;;;;;;4996110;28;20492;-75
2023/01/02 16:29:19;;;;;;;2.80;1.90;;;13.80;71.80;;;;;;4996252;28;20507;-75
2023/01/02 16:31:57;;;;;;;4.00;2.00;;;13.90;71.90;;;;;;4996113;28;20449;-75
2023/01/02 16:34:34;;;;;;;3.63;2.90;;;13.90;72.00;;;;;;4995942;28;20915;-74
2023/01/02 16:37:30;;;;;;;2.70;1.43;;;14.00;71.90;;;;;;4995128;28;20527;-75
2023/01/02 16:39:58;;;;;;;4.73;1.80;;;13.90;72.30;;;;;;4996481;28;20437;-75
2023/01/02 16:42:36;;;;;;;2.60;1.80;;;13.90;72.60;;;;;;4996422;28;20461;-74
2023/01/02 16:45:04;;;;;;;3.57;2.03;;;13.70;73.40;;;;;;4996154;28;20473;-75
2023/01/02 16:47:35;;;;;;;3.80;1.90;;;13.70;73.90;;;;;;4995882;28;20520;-74
2023/01/02 16:50:01;;;;;;;3.40;2.03;;;13.70;74.10;;;;;;4995944;28;20488;-74
2023/01/02 16:52:28;;;;;;;3.33;1.83;;;13.60;74.50;;;;;;4996089;28;20841;-74
2023/01/02 16:54:55;;;;;;;3.10;1.80;;;13.50;74.90;;;;;;4995878;28;20823;-74
2023/01/02 16:57:23;;;;;;;4.07;1.90;;;13.40;75.60;;;;;;4995792;28;20547;-74
2023/01/02 16:59:50;;;;;;;4.20;2.50;;;13.20;76.50;;;;;;4995765;28;20456;-74
2023/01/02 17:02:17;;;;;;;4.50;2.17;;;13.30;76.60;;;;;;4995657;28;20484;-75
2023/01/02 17:04:43;;;;;;;3.30;1.80;;;13.30;76.50;;;;;;4995595;28;20461;-75
2023/01/02 17:07:10;;;;;;;3.50;1.90;;;13.30;76.80;;;;;;4995487;28;20465;-75
2023/01/02 17:09:37;;;;;;;2.30;1.60;;;13.50;76.40;;;;;;4995550;28;20453;-75
2023/01/02 17:12:04;;;;;;;5.37;1.47;;;13.40;76.50;;;;;;4995995;28;20504;-76
2023/01/02 17:14:33;;;;;;;3.20;1.97;;;13.50;76.50;;;;;;4995070;28;20792;-75
2023/01/02 17:17:00;;;;;;;3.90;1.80;;;13.40;77.10;;;;;;4995262;28;20477;-74
2023/01/02 17:19:27;;;;;;;2.60;1.47;;;13.40;77.10;;;;;;4995291;28;20453;-74
2023/01/02 17:21:53;;;;;;;4.27;2.00;;;13.50;77.10;;;;;;4994964;28;20449;-74